Time;durP1;ratioP1;P1;durP2;ratioP2;P2;SDS_P1;SDS_P2;PMS_P1;PMS_P2;Temp;Humidity;BMP_temperature;BMP_pressure;BME280_temperature;BME280_humidity;BME280_pressure;Samples;Min_cycle;Max_cycle;Signal;HPM_P1;HPM_P2
2023/01/27 00:00:51;;;;;;;22.90;9.68;;;0.20;99.90;;;;;;5070210;28;20097;-63
2023/01/27 00:03:17;;;;;;;15.45;9.05;;;0.20;99.90;;;;;;5079849;28;20107;-63
2023/01/27 00:05:44;;;;;;;20.17;10.48;;;0.20;99.90;;;;;;5073218;28;20093;-64
2023/01/27 00:08:09;;;;;;;19.65;8.90;;;0.10;99.90;;;;;;4724452;28;10000015;-62
2023/01/27 00:10:35;;;;;;;25.10;10.52;;;0.20;99.90;;;;;;5069501;28;20553;-65
2023/01/27 00:15:45;;;;;;;29.30;11.40;;;0.20;99.90;;;;;;5070392;28;20048;-65
2023/01/27 00:18:11;;;;;;;31.35;11.68;;;0.20;99.90;;;;;;5071604;28;20267;-63
2023/01/27 00:26:10;;;;;;;23.23;10.43;;;0.70;99.90;;;;;;5073014;28;20106;-64
2023/01/27 00:28:37;;;;;;;23.25;10.75;;;0.20;99.90;;;;;;5071036;28;20024;-64
2023/01/27 00:31:04;;;;;;;27.10;11.30;;;0.20;99.90;;;;;;5071828;28;20047;-61
2023/01/27 00:33:30;;;;;;;32.63;13.07;;;0.20;99.90;;;;;;5073219;28;20107;-65
2023/01/27 00:36:06;;;;;;;33.97;13.32;;;0.20;99.90;;;;;;5073872;28;20083;-62
2023/01/27 00:38:39;;;;;;;26.00;12.23;;;0.20;99.90;;;;;;5072859;28;20023;-63
2023/01/27 00:41:18;;;;;;;30.40;12.70;;;0.30;99.90;;;;;;5073435;28;20036;-64
2023/01/27 00:43:48;;;;;;;33.90;14.15;;;0.20;99.90;;;;;;5072452;28;20021;-64
2023/01/27 00:46:14;;;;;;;34.40;12.23;;;0.20;99.90;;;;;;5071993;28;20051;-66
2023/01/27 00:48:40;;;;;;;29.55;12.65;;;0.30;99.90;;;;;;5072636;28;20400;-64
2023/01/27 00:51:06;;;;;;;28.58;12.75;;;0.30;99.90;;;;;;5072735;28;20033;-64
2023/01/27 00:53:32;;;;;;;23.63;11.15;;;0.20;99.90;;;;;;5073432;28;20029;-64
2023/01/27 00:55:57;;;;;;;25.80;11.10;;;0.20;99.90;;;;;;5082134;28;20024;-65
2023/01/27 00:58:24;;;;;;;20.05;10.82;;;0.30;99.90;;;;;;5092774;28;20064;-63
2023/01/27 01:00:56;;;;;;;25.95;11.65;;;0.20;99.90;;;;;;5077026;28;20033;-65
2023/01/27 01:03:22;;;;;;;28.85;10.45;;;0.20;99.90;;;;;;5072981;28;20036;-67
2023/01/27 01:05:48;;;;;;;29.45;11.85;;;0.20;99.90;;;;;;5072726;28;20039;-64
2023/01/27 01:08:14;;;;;;;22.45;11.43;;;0.20;99.90;;;;;;5072590;28;20020;-66
2023/01/27 01:10:40;;;;;;;35.60;12.77;;;0.30;99.90;;;;;;5072882;28;20028;-65
2023/01/27 01:13:08;;;;;;;30.30;11.55;;;0.20;99.90;;;;;;5072811;28;20113;-66
2023/01/27 01:15:36;;;;;;;36.22;12.50;;;0.20;99.90;;;;;;5072654;28;20569;-64
2023/01/27 01:18:03;;;;;;;32.78;11.55;;;0.20;99.90;;;;;;5072959;28;20028;-65
2023/01/27 01:20:28;;;;;;;32.65;12.70;;;0.30;99.90;;;;;;5072620;28;20020;-64
2023/01/27 01:22:54;;;;;;;35.25;13.00;;;0.30;99.90;;;;;;5072462;28;20078;-65
2023/01/27 01:25:20;;;;;;;34.22;13.73;;;0.30;99.90;;;;;;5072188;28;20028;-65
2023/01/27 01:27:45;;;;;;;46.10;13.57;;;0.30;99.90;;;;;;5071615;28;20143;-63
2023/01/27 01:30:11;;;;;;;31.20;11.98;;;0.30;99.90;;;;;;5074721;28;20048;-64
2023/01/27 01:32:37;;;;;;;33.47;12.82;;;0.20;99.90;;;;;;5076317;28;20032;-66
2023/01/27 01:35:03;;;;;;;41.72;13.98;;;0.20;99.90;;;;;;5074772;28;20054;-66
2023/01/27 01:37:29;;;;;;;32.60;12.45;;;0.30;99.90;;;;;;5074138;28;20031;-64
2023/01/27 01:39:54;;;;;;;43.10;12.43;;;0.30;99.90;;;;;;5075562;28;20028;-66
2023/01/27 01:42:20;;;;;;;39.17;12.93;;;0.30;99.90;;;;;;5080018;28;20029;-66
2023/01/27 01:44:45;;;;;;;30.30;11.23;;;0.30;99.90;;;;;;5090206;28;20035;-64
2023/01/27 01:47:18;;;;;;;30.33;12.73;;;0.30;99.90;;;;;;5089719;28;20040;-65
2023/01/27 01:49:46;;;;;;;37.30;12.48;;;0.30;99.90;;;;;;5090202;28;20316;-65
2023/01/27 01:52:22;;;;;;;34.83;13.10;;;0.40;99.90;;;;;;5091579;28;20028;-64
2023/01/27 01:54:53;;;;;;;30.30;12.07;;;0.30;99.90;;;;;;5086383;28;20082;-65
2023/01/27 01:57:24;;;;;;;23.33;10.77;;;1.10;99.90;;;;;;5079266;28;20466;-65
2023/01/27 01:59:56;;;;;;;29.38;10.50;;;0.30;99.90;;;;;;5076534;28;20025;-65
2023/01/27 02:02:23;;;;;;;34.53;12.32;;;0.30;99.90;;;;;;5076997;28;20020;-64
2023/01/27 02:05:03;;;;;;;35.17;12.23;;;0.20;99.90;;;;;;5076092;28;20119;-66
2023/01/27 02:07:45;;;;;;;31.48;12.00;;;0.20;99.90;;;;;;5077097;28;20028;-63
2023/01/27 02:10:11;;;;;;;38.92;12.63;;;0.30;99.90;;;;;;5078972;28;20133;-64
2023/01/27 02:12:37;;;;;;;36.92;12.45;;;0.30;99.90;;;;;;5059089;28;20470;-64
2023/01/27 02:15:05;;;;;;;26.98;10.32;;;0.20;99.90;;;;;;5075556;28;20032;-63
2023/01/27 02:17:31;;;;;;;43.00;13.27;;;0.30;99.90;;;;;;5076181;28;20035;-65
2023/01/27 02:20:25;;;;;;;36.15;12.95;;;0.30;99.90;;;;;;5075894;28;20036;-64
2023/01/27 02:23:22;;;;;;;33.90;12.88;;;0.30;99.90;;;;;;5073365;28;20031;-65
2023/01/27 02:26:08;;;;;;;30.73;11.88;;;0.20;99.90;;;;;;5062253;28;20438;-65
2023/01/27 02:28:34;;;;;;;30.35;11.73;;;0.30;99.90;;;;;;5075516;28;20384;-63
2023/01/27 02:30:59;;;;;;;33.45;12.10;;;0.30;99.90;;;;;;5075403;28;20028;-66
2023/01/27 02:33:25;;;;;;;31.17;12.45;;;0.30;99.90;;;;;;5075622;28;20043;-66
2023/01/27 02:36:00;;;;;;;22.85;11.43;;;0.30;99.90;;;;;;5061089;28;20399;-66
2023/01/27 02:38:31;;;;;;;20.77;10.57;;;0.30;99.90;;;;;;5075237;28;20032;-66
2023/01/27 02:41:02;;;;;;;24.75;10.93;;;0.30;99.90;;;;;;5055179;28;20602;-65
2023/01/27 02:43:28;;;;;;;30.95;12.02;;;0.90;99.90;;;;;;5072196;28;20024;-64
2023/01/27 02:45:53;;;;;;;24.00;10.55;;;0.30;99.90;;;;;;5093979;22;20024;-64
2023/01/27 02:48:19;;;;;;;28.92;10.70;;;0.20;99.90;;;;;;5091696;28;20036;-64
2023/01/27 02:50:45;;;;;;;24.55;11.43;;;0.30;99.90;;;;;;5093551;28;20487;-64
2023/01/27 02:53:10;;;;;;;24.85;11.27;;;0.30;99.90;;;;;;5091902;28;20055;-64
2023/01/27 02:55:36;;;;;;;28.67;10.88;;;0.30;99.90;;;;;;5092704;28;20044;-66
2023/01/27 02:58:02;;;;;;;24.23;11.45;;;0.30;99.90;;;;;;5073426;28;20046;-63
2023/01/27 03:00:28;;;;;;;25.13;10.10;;;0.30;99.90;;;;;;5072117;28;20036;-64
2023/01/27 03:02:53;;;;;;;29.48;10.15;;;0.40;99.90;;;;;;5072273;28;20090;-64
2023/01/27 03:05:19;;;;;;;26.83;11.85;;;0.40;99.90;;;;;;5072441;28;20024;-65
2023/01/27 03:07:44;;;;;;;23.77;10.98;;;0.30;99.90;;;;;;5072709;28;20090;-64
2023/01/27 03:10:10;;;;;;;18.60;10.02;;;0.40;99.90;;;;;;5072247;28;20028;-64
2023/01/27 03:12:36;;;;;;;22.10;11.23;;;0.40;99.90;;;;;;5072001;28;20401;-64
2023/01/27 03:20:30;;;;;;;26.30;11.80;;;0.40;99.90;;;;;;5072202;28;20022;-64
2023/01/27 03:22:56;;;;;;;21.17;10.65;;;0.40;99.90;;;;;;5072186;28;20060;-62
2023/01/27 03:25:22;;;;;;;30.63;11.93;;;0.50;99.90;;;;;;5071729;28;20060;-61
2023/01/27 03:27:48;;;;;;;24.05;11.52;;;0.50;99.90;;;;;;5072061;28;20415;-63
2023/01/27 03:30:14;;;;;;;24.92;10.45;;;0.50;99.90;;;;;;5059251;28;20087;-64
2023/01/27 03:32:45;;;;;;;23.05;11.70;;;0.50;99.90;;;;;;5072017;28;20617;-63
2023/01/27 03:35:15;;;;;;;24.48;11.63;;;0.50;99.90;;;;;;5071571;28;20505;-64
2023/01/27 03:48:40;;;;;;;33.10;14.98;;;0.50;99.90;;;;;;5072419;28;20106;-64
2023/01/27 03:51:08;;;;;;;25.67;12.90;;;0.40;99.90;;;;;;5071691;28;20411;-64
2023/01/27 03:53:34;;;;;;;17.23;11.02;;;0.50;99.90;;;;;;5071599;28;20024;-64
2023/01/27 03:56:01;;;;;;;14.40;10.18;;;0.70;99.90;;;;;;5071256;28;20043;-64
2023/01/27 03:58:32;;;;;;;18.50;11.10;;;0.50;99.90;;;;;;5071752;28;20078;-62
2023/01/27 04:01:10;;;;;;;16.77;9.80;;;0.50;99.90;;;;;;5070945;28;20028;-64
2023/01/27 04:09:09;;;;;;;27.45;11.68;;;0.50;99.90;;;;;;5071416;28;20039;-64
2023/01/27 04:11:54;;;;;;;20.27;11.02;;;0.50;99.90;;;;;;5071244;28;20203;-63
2023/01/27 04:14:21;;;;;;;28.25;11.30;;;0.50;99.90;;;;;;5070953;28;20102;-62
2023/01/27 04:16:47;;;;;;;23.10;11.25;;;0.60;99.90;;;;;;5071067;28;20047;-64
2023/01/27 04:19:13;;;;;;;26.23;11.38;;;0.50;99.90;;;;;;5071003;28;20129;-64
2023/01/27 04:21:39;;;;;;;19.13;10.57;;;0.50;99.90;;;;;;5071199;28;20020;-64
2023/01/27 04:24:07;;;;;;;20.55;9.82;;;0.50;99.90;;;;;;5052565;28;20023;-64
2023/01/27 04:26:34;;;;;;;22.08;9.57;;;0.50;99.90;;;;;;5070902;28;20588;-65
2023/01/27 04:29:03;;;;;;;17.83;9.75;;;0.50;99.90;;;;;;5070308;28;20020;-64
2023/01/27 04:31:29;;;;;;;20.30;9.68;;;0.60;99.90;;;;;;5070854;28;20103;-63
2023/01/27 04:33:55;;;;;;;15.85;9.55;;;0.60;99.90;;;;;;5070942;28;20017;-64
2023/01/27 04:36:21;;;;;;;20.30;9.77;;;0.50;99.90;;;;;;5070581;28;20346;-64
2023/01/27 04:38:47;;;;;;;18.08;10.55;;;0.50;99.90;;;;;;5053065;28;20020;-64
2023/01/27 04:41:13;;;;;;;23.65;9.98;;;0.50;99.90;;;;;;5070602;28;20016;-65
2023/01/27 04:43:39;;;;;;;19.60;10.45;;;0.50;99.90;;;;;;5052055;28;20035;-62
2023/01/27 04:46:04;;;;;;;19.58;10.20;;;0.60;99.90;;;;;;5070265;28;20404;-65
2023/01/27 04:48:30;;;;;;;22.30;10.68;;;0.50;99.90;;;;;;5070778;28;20511;-65
2023/01/27 04:50:56;;;;;;;20.73;8.82;;;0.60;99.90;;;;;;5070624;28;20033;-65
2023/01/27 04:53:21;;;;;;;17.35;9.15;;;0.60;99.90;;;;;;5070415;28;20573;-65
2023/01/27 04:55:48;;;;;;;25.30;9.70;;;0.60;99.90;;;;;;5070623;28;20043;-64
2023/01/27 04:58:15;;;;;;;12.80;7.53;;;0.60;99.90;;;;;;5070118;28;20036;-63
2023/01/27 05:00:41;;;;;;;19.90;8.57;;;1.00;99.90;;;;;;5070437;28;20118;-63
2023/01/27 05:03:08;;;;;;;20.25;8.38;;;0.70;99.90;;;;;;5070210;28;20052;-62
2023/01/27 05:05:35;;;;;;;13.95;8.07;;;0.70;99.90;;;;;;5070097;28;20032;-64
2023/01/27 05:08:08;;;;;;;21.10;7.68;;;0.70;99.90;;;;;;5070238;28;20058;-64
2023/01/27 05:10:34;;;;;;;15.35;7.32;;;0.60;99.90;;;;;;5062978;28;20060;-61
2023/01/27 05:13:03;;;;;;;14.02;7.32;;;0.70;99.90;;;;;;5070314;28;20411;-65
2023/01/27 05:15:29;;;;;;;9.30;6.00;;;0.70;99.90;;;;;;5063420;28;20032;-63
2023/01/27 05:17:55;;;;;;;11.13;6.07;;;0.70;99.90;;;;;;5074577;28;20012;-63
2023/01/27 05:20:21;;;;;;;15.25;7.03;;;0.80;99.90;;;;;;5074341;28;20510;-65
2023/01/27 05:22:46;;;;;;;17.17;7.47;;;0.70;99.90;;;;;;5074269;28;20453;-61
2023/01/27 05:25:12;;;;;;;16.08;7.70;;;0.80;99.90;;;;;;5073071;28;20090;-63
2023/01/27 05:27:38;;;;;;;15.88;6.68;;;0.70;99.90;;;;;;5074368;28;20036;-63
2023/01/27 05:30:04;;;;;;;15.68;6.90;;;0.70;99.90;;;;;;5074242;28;20032;-62
2023/01/27 05:32:30;;;;;;;14.80;7.45;;;0.70;99.90;;;;;;5065970;28;20048;-64
2023/01/27 05:34:56;;;;;;;11.77;6.50;;;0.70;99.90;;;;;;5072689;28;20021;-65
2023/01/27 05:37:21;;;;;;;16.40;6.45;;;0.70;99.90;;;;;;5066978;28;20023;-64
2023/01/27 05:39:47;;;;;;;15.40;6.47;;;0.80;99.90;;;;;;5068926;28;20067;-65
2023/01/27 05:42:12;;;;;;;12.77;6.00;;;0.90;99.90;;;;;;5082751;28;20031;-63
2023/01/27 05:44:38;;;;;;;14.68;6.30;;;0.90;99.90;;;;;;5066170;28;20032;-65
2023/01/27 05:47:05;;;;;;;11.13;5.68;;;0.90;99.90;;;;;;5066166;28;20655;-64
2023/01/27 05:49:30;;;;;;;12.00;5.90;;;0.90;99.90;;;;;;5060243;28;20453;-63
2023/01/27 05:51:56;;;;;;;15.00;5.90;;;0.80;99.90;;;;;;5068452;28;20029;-63
2023/01/27 05:54:22;;;;;;;17.77;6.55;;;0.80;99.90;;;;;;5064458;28;20043;-60
2023/01/27 05:56:47;;;;;;;20.13;8.68;;;0.70;99.90;;;;;;5068078;28;20194;-63
2023/01/27 05:59:13;;;;;;;14.93;6.63;;;0.80;99.90;;;;;;5067086;28;20720;-64
2023/01/27 06:01:38;;;;;;;19.10;6.90;;;0.80;99.90;;;;;;5068707;28;20039;-59
2023/01/27 06:04:05;;;;;;;15.18;6.55;;;0.80;99.90;;;;;;5050542;28;20029;-63
2023/01/27 06:06:32;;;;;;;21.65;8.10;;;0.80;99.90;;;;;;5084249;28;20032;-63
2023/01/27 06:08:58;;;;;;;26.08;7.43;;;0.70;99.90;;;;;;5062647;28;20119;-63
2023/01/27 06:11:25;;;;;;;32.65;9.73;;;0.70;99.90;;;;;;5068290;28;20119;-63
2023/01/27 06:13:52;;;;;;;24.35;8.15;;;0.70;99.90;;;;;;5067554;28;20078;-64
2023/01/27 06:16:19;;;;;;;28.58;7.13;;;0.70;99.90;;;;;;5069048;28;20049;-63
2023/01/27 06:18:46;;;;;;;25.02;7.47;;;0.60;99.90;;;;;;5055100;28;20048;-64
2023/01/27 06:21:13;;;;;;;22.90;8.43;;;0.70;99.90;;;;;;5073907;28;20116;-66
2023/01/27 06:23:39;;;;;;;21.25;7.20;;;1.00;99.90;;;;;;5067889;28;20017;-61
2023/01/27 06:26:13;;;;;;;25.15;8.40;;;0.70;99.90;;;;;;5062965;28;20431;-59
2023/01/27 06:28:38;;;;;;;36.07;9.03;;;0.70;99.90;;;;;;5054771;28;20035;-63
2023/01/27 06:31:09;;;;;;;29.60;7.72;;;0.60;99.90;;;;;;5066739;28;20033;-63
2023/01/27 06:33:35;;;;;;;31.38;8.40;;;0.70;99.90;;;;;;5064013;28;20025;-63
2023/01/27 06:36:04;;;;;;;21.90;7.15;;;0.70;99.90;;;;;;5061683;28;20048;-59
2023/01/27 06:38:30;;;;;;;27.58;8.20;;;0.70;99.90;;;;;;5081173;28;20028;-62
2023/01/27 06:40:55;;;;;;;25.45;6.90;;;0.70;99.90;;;;;;5068450;28;20020;-62
2023/01/27 06:43:21;;;;;;;24.25;6.70;;;0.70;99.90;;;;;;5070720;28;20021;-61
2023/01/27 06:45:50;;;;;;;18.20;6.63;;;1.00;99.90;;;;;;5079382;28;20395;-64
2023/01/27 06:48:16;;;;;;;18.70;6.38;;;0.80;99.90;;;;;;5083257;28;20043;-58
2023/01/27 06:50:42;;;;;;;21.77;7.60;;;0.90;99.90;;;;;;5070677;28;20021;-62
2023/01/27 06:53:08;;;;;;;25.08;6.88;;;0.90;99.90;;;;;;5072364;28;20119;-64
2023/01/27 06:55:40;;;;;;;21.85;6.65;;;0.90;99.90;;;;;;5068327;28;20017;-64
2023/01/27 06:58:07;;;;;;;17.85;7.75;;;1.00;99.90;;;;;;5067115;28;20048;-64
2023/01/27 07:00:32;;;;;;;29.75;9.27;;;1.00;99.90;;;;;;5069370;28;20115;-61
2023/01/27 07:02:58;;;;;;;30.88;10.30;;;1.00;99.90;;;;;;5075132;28;20184;-65
2023/01/27 07:05:24;;;;;;;26.00;8.90;;;1.00;99.90;;;;;;5066150;28;20067;-64
2023/01/27 07:07:50;;;;;;;30.95;9.40;;;1.00;99.90;;;;;;5068469;28;20216;-63
2023/01/27 07:10:15;;;;;;;22.98;8.02;;;1.10;99.90;;;;;;5066591;28;20708;-64
2023/01/27 07:12:41;;;;;;;30.63;9.48;;;1.10;99.90;;;;;;5074271;28;20031;-62
2023/01/27 07:15:09;;;;;;;34.67;10.13;;;1.10;99.90;;;;;;5068405;28;20044;-64
2023/01/27 07:17:35;;;;;;;21.70;8.93;;;1.20;99.90;;;;;;5067714;28;20028;-61
2023/01/27 07:20:01;;;;;;;42.10;16.52;;;1.20;99.90;;;;;;5066139;28;20024;-62
2023/01/27 07:22:27;;;;;;;29.80;10.65;;;1.20;99.90;;;;;;5072423;28;20447;-62
2023/01/27 07:24:54;;;;;;;29.58;9.07;;;1.20;99.90;;;;;;5070328;28;20032;-61
2023/01/27 07:27:21;;;;;;;28.33;9.10;;;1.30;99.90;;;;;;5063562;28;20587;-64
2023/01/27 07:29:46;;;;;;;24.25;9.07;;;1.30;99.90;;;;;;5066606;28;20043;-64
2023/01/27 07:32:12;;;;;;;30.10;10.70;;;1.30;99.90;;;;;;5057055;28;20072;-64
2023/01/27 07:34:37;;;;;;;24.92;9.93;;;1.30;99.90;;;;;;5067227;28;20245;-60
2023/01/27 07:37:04;;;;;;;33.00;10.38;;;1.40;99.90;;;;;;5065726;28;20033;-60
2023/01/27 07:39:30;;;;;;;37.80;11.45;;;1.40;99.90;;;;;;5048332;28;20031;-58
2023/01/27 07:41:57;;;;;;;36.55;11.27;;;1.40;99.90;;;;;;5066040;28;20029;-63
2023/01/27 07:44:23;;;;;;;35.58;11.10;;;1.40;99.90;;;;;;5047177;28;20025;-66
2023/01/27 07:46:49;;;;;;;39.83;11.82;;;1.40;99.90;;;;;;5066504;28;20090;-61
2023/01/27 07:49:14;;;;;;;37.80;11.60;;;1.40;99.90;;;;;;5065565;28;20069;-60
2023/01/27 07:51:40;;;;;;;42.38;12.10;;;1.40;99.90;;;;;;5054533;28;20033;-64
2023/01/27 07:54:06;;;;;;;40.33;12.18;;;1.50;99.90;;;;;;5058373;28;20017;-60
2023/01/27 07:56:31;;;;;;;38.00;13.38;;;1.50;99.90;;;;;;5063167;28;20432;-66
2023/01/27 07:58:57;;;;;;;44.60;13.85;;;1.60;99.90;;;;;;5067724;28;20037;-63
2023/01/27 08:01:23;;;;;;;40.53;12.20;;;1.60;99.90;;;;;;5066290;28;20078;-64
2023/01/27 08:03:49;;;;;;;50.55;12.35;;;1.60;99.90;;;;;;5066919;28;20035;-67
2023/01/27 08:06:15;;;;;;;42.10;13.35;;;1.60;99.90;;;;;;5065750;28;20085;-65
2023/01/27 08:08:40;;;;;;;36.08;12.68;;;1.70;99.90;;;;;;5068634;28;20078;-66
2023/01/27 08:11:09;;;;;;;48.90;13.05;;;1.70;99.90;;;;;;5063672;28;20051;-66
2023/01/27 08:13:35;;;;;;;41.55;13.60;;;1.80;99.90;;;;;;5056115;28;20033;-67
2023/01/27 08:16:04;;;;;;;37.33;13.13;;;1.80;99.90;;;;;;5055052;28;20139;-70
2023/01/27 08:18:32;;;;;;;33.47;12.10;;;1.90;99.90;;;;;;5049615;28;20025;-68
2023/01/27 08:21:05;;;;;;;30.42;12.35;;;1.90;99.90;;;;;;5053490;28;20067;-68
2023/01/27 08:23:32;;;;;;;30.15;13.00;;;2.00;99.90;;;;;;5060451;28;20031;-69
2023/01/27 08:26:00;;;;;;;35.95;13.57;;;2.00;99.90;;;;;;5064432;28;20036;-69
2023/01/27 08:28:30;;;;;;;28.48;14.43;;;2.00;99.90;;;;;;5063699;28;20048;-70
2023/01/27 08:31:06;;;;;;;30.25;12.25;;;2.10;99.90;;;;;;5045615;28;20074;-68
2023/01/27 08:33:32;;;;;;;41.90;17.67;;;2.10;99.90;;;;;;5045120;28;20028;-69
2023/01/27 08:36:05;;;;;;;40.17;15.02;;;2.10;99.90;;;;;;5063833;28;20392;-68
2023/01/27 08:38:33;;;;;;;33.15;12.55;;;2.10;99.90;;;;;;5063417;28;20055;-68
2023/01/27 08:41:06;;;;;;;28.05;13.65;;;2.20;99.90;;;;;;5056295;28;20441;-68
2023/01/27 08:43:32;;;;;;;29.35;11.60;;;2.20;99.90;;;;;;5068712;28;20570;-68
2023/01/27 08:45:59;;;;;;;21.60;11.40;;;2.70;99.90;;;;;;5050570;28;20451;-68
2023/01/27 08:48:26;;;;;;;36.10;13.02;;;2.30;99.90;;;;;;5088775;22;20047;-65
2023/01/27 08:50:52;;;;;;;44.92;14.85;;;2.20;99.90;;;;;;5081766;28;20036;-65
2023/01/27 08:53:17;;;;;;;30.80;12.20;;;2.30;99.90;;;;;;5070611;28;20025;-63
2023/01/27 08:55:43;;;;;;;34.72;13.02;;;2.30;99.90;;;;;;5084010;28;20020;-64
2023/01/27 08:58:08;;;;;;;103.28;31.77;;;2.30;99.90;;;;;;5085097;28;20032;-62
2023/01/27 09:00:34;;;;;;;31.45;15.32;;;2.90;99.90;;;;;;5089702;28;20103;-63
2023/01/27 09:03:00;;;;;;;26.73;14.38;;;2.40;99.90;;;;;;5085652;28;20352;-64
2023/01/27 09:05:25;;;;;;;39.88;13.48;;;2.40;99.90;;;;;;5093411;28;20214;-63
2023/01/27 09:07:51;;;;;;;30.65;11.75;;;2.40;99.90;;;;;;5091477;28;20065;-63
2023/01/27 09:10:17;;;;;;;22.45;10.40;;;2.40;99.90;;;;;;5087366;28;20035;-62
2023/01/27 09:12:43;;;;;;;18.13;10.70;;;2.50;99.90;;;;;;5087161;28;20309;-61
2023/01/27 09:15:09;;;;;;;14.95;10.30;;;2.60;99.90;;;;;;5088459;28;20274;-61
2023/01/27 09:17:36;;;;;;;17.88;8.90;;;2.70;99.90;;;;;;5087866;28;20027;-63
2023/01/27 09:20:02;;;;;;;16.27;11.70;;;2.70;99.90;;;;;;5087627;28;20020;-62
2023/01/27 09:22:27;;;;;;;17.48;10.45;;;2.70;99.90;;;;;;5088422;28;20237;-64
2023/01/27 09:24:53;;;;;;;17.55;10.25;;;2.80;99.90;;;;;;5085294;28;20038;-62
2023/01/27 09:27:19;;;;;;;11.63;9.13;;;2.80;99.90;;;;;;5086477;28;20036;-62
2023/01/27 09:29:44;;;;;;;20.15;9.45;;;2.70;99.90;;;;;;5085555;28;20039;-63
2023/01/27 09:32:11;;;;;;;33.58;13.20;;;2.70;99.90;;;;;;5087713;28;20085;-59
2023/01/27 09:34:37;;;;;;;47.50;19.80;;;2.70;99.90;;;;;;5086319;28;20020;-63
2023/01/27 09:37:08;;;;;;;45.58;20.00;;;3.10;99.90;;;;;;5087374;28;20088;-60
2023/01/27 09:39:40;;;;;;;36.42;17.75;;;2.70;99.90;;;;;;5083417;28;20020;-63
2023/01/27 09:42:16;;;;;;;24.90;13.15;;;2.70;99.90;;;;;;5090613;28;20046;-59
2023/01/27 09:45:06;;;;;;;19.17;11.32;;;2.80;99.90;;;;;;5091709;28;20031;-64
2023/01/27 09:47:39;;;;;;;15.65;9.30;;;2.80;99.90;;;;;;5087857;28;20054;-58
2023/01/27 09:50:39;;;;;;;12.73;9.90;;;2.80;99.90;;;;;;5085348;28;20028;-64
2023/01/27 09:53:33;;;;;;;18.75;10.30;;;2.80;99.90;;;;;;5078491;28;20037;-63
2023/01/27 09:56:14;;;;;;;12.18;9.40;;;2.80;99.90;;;;;;5079280;28;20028;-63
2023/01/27 09:58:52;;;;;;;15.70;8.77;;;3.20;99.90;;;;;;5098456;28;20028;-61
2023/01/27 10:01:24;;;;;;;21.70;10.45;;;3.40;99.90;;;;;;5090229;28;20307;-64
2023/01/27 10:03:58;;;;;;;14.85;9.90;;;2.90;99.90;;;;;;5084262;28;20027;-63
2023/01/27 10:06:32;;;;;;;10.77;9.43;;;3.10;99.90;;;;;;5091072;28;20180;-62
2023/01/27 10:09:33;;;;;;;16.70;8.90;;;2.90;99.90;;;;;;5084275;28;20027;-64
2023/01/27 10:11:59;;;;;;;19.80;9.38;;;4.80;99.90;;;;;;5079330;28;20036;-64
2023/01/27 10:14:43;;;;;;;20.63;10.00;;;2.90;99.90;;;;;;5091258;28;20471;-63
2023/01/27 10:17:25;;;;;;;18.05;10.02;;;3.00;99.90;;;;;;5090676;28;20776;-61
2023/01/27 10:20:12;;;;;;;9.80;8.80;;;3.00;99.90;;;;;;5102454;28;20041;-60
2023/01/27 10:23:02;;;;;;;17.50;10.00;;;3.00;99.90;;;;;;5091925;28;20083;-64
2023/01/27 10:25:43;;;;;;;13.25;8.30;;;3.00;99.90;;;;;;5089281;28;20020;-63
2023/01/27 10:28:13;;;;;;;9.45;8.25;;;3.00;99.90;;;;;;5086616;28;20423;-61
2023/01/27 10:30:50;;;;;;;19.60;9.32;;;3.00;99.90;;;;;;5091318;28;20046;-63
2023/01/27 10:33:18;;;;;;;10.65;7.45;;;3.00;99.90;;;;;;5105863;28;20733;-60
2023/01/27 10:36:04;;;;;;;14.73;7.53;;;3.10;99.90;;;;;;5093907;28;20514;-63
2023/01/27 10:38:45;;;;;;;25.65;9.27;;;3.10;99.90;;;;;;5090832;28;20065;-62
2023/01/27 10:41:13;;;;;;;13.57;8.52;;;3.10;99.90;;;;;;5087301;28;20047;-63
2023/01/27 10:43:50;;;;;;;14.50;8.02;;;3.10;99.90;;;;;;5087345;28;20503;-62
2023/01/27 10:46:25;;;;;;;13.38;8.10;;;3.10;99.90;;;;;;5089693;28;20016;-63
2023/01/27 10:48:50;;;;;;;12.52;7.65;;;3.10;99.90;;;;;;5091833;28;20420;-63
2023/01/27 10:51:34;;;;;;;15.07;8.75;;;3.20;99.90;;;;;;5088973;28;20116;-61
2023/01/27 10:54:17;;;;;;;11.50;6.78;;;3.10;99.90;;;;;;5093159;28;20020;-64
2023/01/27 10:57:02;;;;;;;15.10;6.22;;;3.20;99.90;;;;;;5090558;28;20074;-62
2023/01/27 10:59:41;;;;;;;;;;;3.10;99.90;;;;;;5091038;28;20077;-62
2023/01/27 11:02:10;;;;;;;17.25;7.15;;;3.10;99.90;;;;;;5084687;28;19956;-65
2023/01/27 11:05:00;;;;;;;11.45;6.60;;;3.20;99.90;;;;;;5091312;28;20023;-61
2023/01/27 11:07:26;;;;;;;9.40;6.80;;;3.20;99.90;;;;;;5076496;28;20372;-62
2023/01/27 11:09:56;;;;;;;10.15;5.55;;;3.20;99.90;;;;;;5099258;28;20034;-63
2023/01/27 11:12:44;;;;;;;8.07;5.43;;;3.30;99.90;;;;;;5093568;28;20031;-60
2023/01/27 11:15:23;;;;;;;7.57;5.65;;;3.30;99.90;;;;;;5082472;28;20114;-63
2023/01/27 11:17:51;;;;;;;9.63;5.50;;;3.40;99.90;;;;;;5093620;28;20039;-64
2023/01/27 11:20:28;;;;;;;6.40;5.80;;;3.40;99.90;;;;;;5088437;28;20036;-63
2023/01/27 11:23:08;;;;;;;13.32;5.28;;;3.50;99.90;;;;;;5092300;28;20502;-62
2023/01/27 11:25:43;;;;;;;14.95;5.68;;;3.60;99.90;;;;;;5095706;28;20554;-60
2023/01/27 11:28:28;;;;;;;7.93;5.03;;;3.60;99.90;;;;;;5086339;28;20028;-60
2023/01/27 11:31:10;;;;;;;10.73;4.05;;;3.70;99.90;;;;;;5088569;28;20687;-61
2023/01/27 11:33:43;;;;;;;16.60;4.72;;;3.70;99.90;;;;;;5087267;28;20081;-64
2023/01/27 11:36:09;;;;;;;9.18;4.43;;;3.90;99.90;;;;;;5086321;28;20120;-62
2023/01/27 11:38:35;;;;;;;6.40;3.15;;;3.90;99.90;;;;;;5087564;28;20024;-61
2023/01/27 11:41:00;;;;;;;11.68;3.80;;;3.80;99.90;;;;;;5093594;28;20050;-63
2023/01/27 11:43:27;;;;;;;13.40;3.63;;;3.90;99.90;;;;;;5102491;28;20035;-63
2023/01/27 11:46:06;;;;;;;9.15;4.47;;;3.90;99.90;;;;;;5090233;28;20028;-62
2023/01/27 11:48:40;;;;;;;9.50;3.45;;;4.00;99.90;;;;;;5089880;28;20048;-63
2023/01/27 11:51:16;;;;;;;11.88;3.67;;;4.00;99.90;;;;;;5091644;28;20107;-65
2023/01/27 11:53:44;;;;;;;11.80;6.78;;;4.10;99.90;;;;;;5101455;28;20046;-59
2023/01/27 11:56:17;;;;;;;6.88;2.65;;;4.10;99.90;;;;;;5100696;28;20024;-64
2023/01/27 11:58:53;;;;;;;5.65;3.58;;;4.10;99.90;;;;;;5104346;28;20027;-63
2023/01/27 12:01:24;;;;;;;8.68;3.30;;;4.10;99.90;;;;;;5095628;28;20020;-63
2023/01/27 12:04:18;;;;;;;4.85;2.17;;;4.00;99.90;;;;;;5087100;28;20024;-60
2023/01/27 12:07:00;;;;;;;5.47;3.40;;;4.00;99.90;;;;;;5107848;28;20028;-57
2023/01/27 12:09:38;;;;;;;5.97;2.72;;;4.00;99.90;;;;;;5085076;28;20035;-62
2023/01/27 12:12:12;;;;;;;6.05;2.95;;;4.00;99.90;;;;;;5096709;28;20034;-60
2023/01/27 12:14:38;;;;;;;7.78;3.35;;;4.00;99.90;;;;;;5094857;28;20035;-60
2023/01/27 12:17:07;;;;;;;11.23;6.90;;;4.00;99.90;;;;;;5091443;28;20016;-59
2023/01/27 12:19:40;;;;;;;13.10;7.22;;;4.00;99.90;;;;;;5092182;28;20026;-61
2023/01/27 12:22:12;;;;;;;12.75;4.15;;;4.00;99.90;;;;;;5104572;28;20024;-57
2023/01/27 12:24:44;;;;;;;10.05;4.40;;;4.00;99.90;;;;;;5094669;28;20073;-62
2023/01/27 12:27:20;;;;;;;8.35;4.78;;;3.90;99.90;;;;;;5099122;28;20024;-62
2023/01/27 12:29:59;;;;;;;12.43;4.85;;;3.80;99.90;;;;;;5091262;28;20444;-59
2023/01/27 12:32:38;;;;;;;10.35;5.80;;;3.80;99.90;;;;;;5101107;28;20032;-61
2023/01/27 12:35:04;;;;;;;12.52;5.75;;;3.80;99.90;;;;;;5104753;28;20035;-61
2023/01/27 12:37:36;;;;;;;14.20;5.15;;;3.70;99.90;;;;;;5100785;28;20625;-61
2023/01/27 12:40:05;;;;;;;8.63;6.18;;;3.70;99.90;;;;;;5107849;28;20418;-63
2023/01/27 12:42:37;;;;;;;19.65;8.75;;;3.70;99.90;;;;;;5094017;28;20032;-63
2023/01/27 12:45:28;;;;;;;11.57;6.22;;;3.70;99.90;;;;;;5105761;28;20080;-63
2023/01/27 12:48:06;;;;;;;19.70;7.68;;;3.70;99.90;;;;;;5097656;28;20036;-63
2023/01/27 12:50:54;;;;;;;22.80;6.07;;;3.70;99.90;;;;;;5087882;28;20571;-59
